sensor_id;sensor_type;location;lat;lon;timestamp;P1;durP1;ratioP1;P2;durP2;ratioP2
10565;SDS011;5331;48.148;16.326;2022-11-15T00:02:15;115.17;;;39.10;;
10565;SDS011;5331;48.148;16.326;2022-11-15T00:04:43;165.57;;;39.23;;
10565;SDS011;5331;48.148;16.326;2022-11-15T00:07:10;131.90;;;38.90;;
10565;SDS011;5331;48.148;16.326;2022-11-15T00:09:38;183.57;;;41.13;;
10565;SDS011;5331;48.148;16.326;2022-11-15T00:12:05;115.00;;;37.63;;
10565;SDS011;5331;48.148;16.326;2022-11-15T00:14:33;114.07;;;36.20;;
10565;SDS011;5331;48.148;16.326;2022-11-15T00:17:00;153.50;;;38.40;;
10565;SDS011;5331;48.148;16.326;2022-11-15T00:19:27;101.80;;;34.60;;
10565;SDS011;5331;48.148;16.326;2022-11-15T00:21:54;102.20;;;36.47;;
10565;SDS011;5331;48.148;16.326;2022-11-15T00:24:21;106.73;;;36.27;;
10565;SDS011;5331;48.148;16.326;2022-11-15T00:26:50;103.13;;;35.47;;
10565;SDS011;5331;48.148;16.326;2022-11-15T00:29:17;97.80;;;34.50;;
10565;SDS011;5331;48.148;16.326;2022-11-15T00:31:44;102.60;;;34.73;;
10565;SDS011;5331;48.148;16.326;2022-11-15T00:34:11;105.73;;;35.50;;
10565;SDS011;5331;48.148;16.326;2022-11-15T00:36:38;119.43;;;36.17;;
10565;SDS011;5331;48.148;16.326;2022-11-15T00:39:05;107.93;;;34.93;;
10565;SDS011;5331;48.148;16.326;2022-11-15T00:41:33;118.37;;;36.33;;
10565;SDS011;5331;48.148;16.326;2022-11-15T00:44:01;118.57;;;35.43;;
10565;SDS011;5331;48.148;16.326;2022-11-15T00:46:28;178.50;;;38.87;;
10565;SDS011;5331;48.148;16.326;2022-11-15T00:48:55;122.67;;;36.97;;
10565;SDS011;5331;48.148;16.326;2022-11-15T00:51:23;171.97;;;36.60;;
10565;SDS011;5331;48.148;16.326;2022-11-15T00:53:50;129.57;;;36.73;;
10565;SDS011;5331;48.148;16.326;2022-11-15T00:56:17;100.63;;;33.70;;
10565;SDS011;5331;48.148;16.326;2022-11-15T00:58:44;119.43;;;35.77;;
10565;SDS011;5331;48.148;16.326;2022-11-15T01:01:13;110.50;;;35.00;;
10565;SDS011;5331;48.148;16.326;2022-11-15T01:03:40;130.73;;;37.07;;
10565;SDS011;5331;48.148;16.326;2022-11-15T01:06:08;102.67;;;34.37;;
10565;SDS011;5331;48.148;16.326;2022-11-15T01:08:37;96.83;;;32.90;;
10565;SDS011;5331;48.148;16.326;2022-11-15T01:11:05;84.43;;;32.13;;
10565;SDS011;5331;48.148;16.326;2022-11-15T01:13:34;102.90;;;33.50;;
10565;SDS011;5331;48.148;16.326;2022-11-15T01:16:05;88.27;;;31.93;;
10565;SDS011;5331;48.148;16.326;2022-11-15T01:18:35;93.60;;;31.67;;
10565;SDS011;5331;48.148;16.326;2022-11-15T01:21:06;87.37;;;31.87;;
10565;SDS011;5331;48.148;16.326;2022-11-15T01:23:34;88.43;;;31.10;;
10565;SDS011;5331;48.148;16.326;2022-11-15T01:26:01;95.83;;;32.37;;
10565;SDS011;5331;48.148;16.326;2022-11-15T01:28:30;88.33;;;31.50;;
10565;SDS011;5331;48.148;16.326;2022-11-15T01:30:58;99.77;;;32.23;;
10565;SDS011;5331;48.148;16.326;2022-11-15T01:33:25;102.10;;;32.23;;
10565;SDS011;5331;48.148;16.326;2022-11-15T01:35:54;88.73;;;30.40;;
10565;SDS011;5331;48.148;16.326;2022-11-15T01:38:21;85.53;;;29.57;;
10565;SDS011;5331;48.148;16.326;2022-11-15T01:40:49;100.37;;;31.40;;
10565;SDS011;5331;48.148;16.326;2022-11-15T01:43:19;89.97;;;29.77;;
10565;SDS011;5331;48.148;16.326;2022-11-15T01:45:47;92.83;;;30.30;;
10565;SDS011;5331;48.148;16.326;2022-11-15T01:48:17;84.10;;;28.90;;
10565;SDS011;5331;48.148;16.326;2022-11-15T01:50:44;85.13;;;28.63;;
10565;SDS011;5331;48.148;16.326;2022-11-15T01:53:13;91.93;;;30.57;;
10565;SDS011;5331;48.148;16.326;2022-11-15T01:55:41;79.60;;;29.00;;
10565;SDS011;5331;48.148;16.326;2022-11-15T01:58:08;84.87;;;29.53;;
10565;SDS011;5331;48.148;16.326;2022-11-15T02:00:35;87.67;;;28.93;;
10565;SDS011;5331;48.148;16.326;2022-11-15T02:03:02;85.33;;;28.23;;
10565;SDS011;5331;48.148;16.326;2022-11-15T02:05:29;80.83;;;29.77;;
10565;SDS011;5331;48.148;16.326;2022-11-15T02:07:57;99.33;;;30.20;;
10565;SDS011;5331;48.148;16.326;2022-11-15T02:10:25;92.47;;;30.17;;
10565;SDS011;5331;48.148;16.326;2022-11-15T02:12:53;85.77;;;30.00;;
10565;SDS011;5331;48.148;16.326;2022-11-15T02:15:23;79.67;;;29.50;;
10565;SDS011;5331;48.148;16.326;2022-11-15T02:17:56;90.93;;;30.53;;
10565;SDS011;5331;48.148;16.326;2022-11-15T02:20:39;87.40;;;29.57;;
10565;SDS011;5331;48.148;16.326;2022-11-15T02:26:41;103.50;;;30.63;;
10565;SDS011;5331;48.148;16.326;2022-11-15T02:29:21;88.70;;;30.63;;
10565;SDS011;5331;48.148;16.326;2022-11-15T02:31:59;74.23;;;27.77;;
10565;SDS011;5331;48.148;16.326;2022-11-15T02:34:33;84.30;;;29.20;;
10565;SDS011;5331;48.148;16.326;2022-11-15T02:37:11;86.73;;;29.03;;
10565;SDS011;5331;48.148;16.326;2022-11-15T02:39:44;80.03;;;29.20;;
10565;SDS011;5331;48.148;16.326;2022-11-15T02:42:17;86.90;;;28.13;;
10565;SDS011;5331;48.148;16.326;2022-11-15T02:45:06;88.00;;;31.03;;
10565;SDS011;5331;48.148;16.326;2022-11-15T02:47:40;99.10;;;31.00;;
10565;SDS011;5331;48.148;16.326;2022-11-15T02:50:10;93.03;;;27.77;;
10565;SDS011;5331;48.148;16.326;2022-11-15T02:52:39;78.47;;;28.37;;
10565;SDS011;5331;48.148;16.326;2022-11-15T02:57:52;72.53;;;26.90;;
10565;SDS011;5331;48.148;16.326;2022-11-15T03:00:28;80.57;;;27.47;;
10565;SDS011;5331;48.148;16.326;2022-11-15T03:03:08;66.47;;;26.07;;
10565;SDS011;5331;48.148;16.326;2022-11-15T03:05:50;77.00;;;27.13;;
10565;SDS011;5331;48.148;16.326;2022-11-15T03:08:26;73.13;;;27.27;;
10565;SDS011;5331;48.148;16.326;2022-11-15T03:10:59;79.40;;;27.63;;
10565;SDS011;5331;48.148;16.326;2022-11-15T03:13:34;68.63;;;27.13;;
10565;SDS011;5331;48.148;16.326;2022-11-15T03:16:07;68.20;;;26.20;;
10565;SDS011;5331;48.148;16.326;2022-11-15T03:18:43;70.37;;;26.57;;
10565;SDS011;5331;48.148;16.326;2022-11-15T03:21:14;81.57;;;29.07;;
10565;SDS011;5331;48.148;16.326;2022-11-15T03:23:42;96.40;;;29.23;;
10565;SDS011;5331;48.148;16.326;2022-11-15T03:26:11;84.90;;;29.60;;
10565;SDS011;5331;48.148;16.326;2022-11-15T03:28:41;106.87;;;31.20;;
10565;SDS011;5331;48.148;16.326;2022-11-15T03:31:12;88.90;;;29.83;;
10565;SDS011;5331;48.148;16.326;2022-11-15T03:34:00;79.93;;;28.67;;
10565;SDS011;5331;48.148;16.326;2022-11-15T03:36:31;80.07;;;28.17;;
10565;SDS011;5331;48.148;16.326;2022-11-15T03:39:01;72.63;;;27.30;;
10565;SDS011;5331;48.148;16.326;2022-11-15T03:41:33;81.70;;;29.27;;
10565;SDS011;5331;48.148;16.326;2022-11-15T03:44:08;81.83;;;29.13;;
10565;SDS011;5331;48.148;16.326;2022-11-15T03:46:40;88.37;;;29.10;;
10565;SDS011;5331;48.148;16.326;2022-11-15T03:49:15;70.20;;;26.13;;
10565;SDS011;5331;48.148;16.326;2022-11-15T03:51:46;89.20;;;28.83;;
10565;SDS011;5331;48.148;16.326;2022-11-15T03:54:13;82.90;;;27.37;;
10565;SDS011;5331;48.148;16.326;2022-11-15T03:56:40;85.60;;;28.17;;
10565;SDS011;5331;48.148;16.326;2022-11-15T03:59:07;84.23;;;27.30;;
10565;SDS011;5331;48.148;16.326;2022-11-15T04:01:34;90.87;;;27.93;;
10565;SDS011;5331;48.148;16.326;2022-11-15T04:04:01;83.70;;;28.13;;
10565;SDS011;5331;48.148;16.326;2022-11-15T04:06:29;65.90;;;25.87;;
10565;SDS011;5331;48.148;16.326;2022-11-15T04:08:56;81.53;;;27.63;;
10565;SDS011;5331;48.148;16.326;2022-11-15T04:11:23;82.07;;;27.60;;
10565;SDS011;5331;48.148;16.326;2022-11-15T04:13:50;114.87;;;29.40;;
10565;SDS011;5331;48.148;16.326;2022-11-15T04:16:17;92.33;;;27.53;;
10565;SDS011;5331;48.148;16.326;2022-11-15T04:18:44;80.70;;;27.17;;
10565;SDS011;5331;48.148;16.326;2022-11-15T04:21:32;76.17;;;26.93;;
10565;SDS011;5331;48.148;16.326;2022-11-15T04:24:16;86.47;;;27.43;;
10565;SDS011;5331;48.148;16.326;2022-11-15T04:26:43;66.17;;;25.33;;
10565;SDS011;5331;48.148;16.326;2022-11-15T04:29:10;82.87;;;27.03;;
10565;SDS011;5331;48.148;16.326;2022-11-15T04:31:54;92.57;;;27.27;;
10565;SDS011;5331;48.148;16.326;2022-11-15T04:34:21;85.40;;;28.10;;
10565;SDS011;5331;48.148;16.326;2022-11-15T04:36:49;79.93;;;27.33;;
10565;SDS011;5331;48.148;16.326;2022-11-15T04:39:34;77.00;;;27.73;;
10565;SDS011;5331;48.148;16.326;2022-11-15T04:42:01;81.60;;;26.97;;
10565;SDS011;5331;48.148;16.326;2022-11-15T04:44:28;74.70;;;26.03;;
10565;SDS011;5331;48.148;16.326;2022-11-15T04:46:55;84.73;;;26.80;;
10565;SDS011;5331;48.148;16.326;2022-11-15T04:49:22;89.27;;;27.23;;
10565;SDS011;5331;48.148;16.326;2022-11-15T04:51:50;77.17;;;26.70;;
10565;SDS011;5331;48.148;16.326;2022-11-15T04:54:18;83.50;;;27.50;;
10565;SDS011;5331;48.148;16.326;2022-11-15T04:56:44;83.17;;;26.43;;
10565;SDS011;5331;48.148;16.326;2022-11-15T04:59:11;70.50;;;25.87;;
10565;SDS011;5331;48.148;16.326;2022-11-15T05:01:38;72.27;;;26.80;;
10565;SDS011;5331;48.148;16.326;2022-11-15T05:04:05;89.20;;;26.00;;
10565;SDS011;5331;48.148;16.326;2022-11-15T05:06:44;62.83;;;24.63;;
10565;SDS011;5331;48.148;16.326;2022-11-15T05:09:12;71.10;;;25.30;;
10565;SDS011;5331;48.148;16.326;2022-11-15T05:11:40;64.60;;;24.10;;
10565;SDS011;5331;48.148;16.326;2022-11-15T05:14:06;76.00;;;24.53;;
10565;SDS011;5331;48.148;16.326;2022-11-15T05:16:33;77.30;;;26.03;;
10565;SDS011;5331;48.148;16.326;2022-11-15T05:19:00;69.23;;;24.70;;
10565;SDS011;5331;48.148;16.326;2022-11-15T05:21:28;75.63;;;26.03;;
10565;SDS011;5331;48.148;16.326;2022-11-15T05:23:56;94.67;;;28.67;;
10565;SDS011;5331;48.148;16.326;2022-11-15T05:26:25;80.97;;;28.77;;
10565;SDS011;5331;48.148;16.326;2022-11-15T05:28:52;96.90;;;29.03;;
10565;SDS011;5331;48.148;16.326;2022-11-15T05:31:20;86.33;;;28.37;;
10565;SDS011;5331;48.148;16.326;2022-11-15T05:33:48;102.93;;;28.97;;
10565;SDS011;5331;48.148;16.326;2022-11-15T05:36:17;77.63;;;27.70;;
10565;SDS011;5331;48.148;16.326;2022-11-15T05:38:48;107.47;;;29.37;;
10565;SDS011;5331;48.148;16.326;2022-11-15T05:41:16;97.00;;;29.53;;
10565;SDS011;5331;48.148;16.326;2022-11-15T05:43:46;105.03;;;29.57;;
10565;SDS011;5331;48.148;16.326;2022-11-15T05:46:14;124.27;;;30.07;;
10565;SDS011;5331;48.148;16.326;2022-11-15T05:48:42;88.03;;;29.17;;
10565;SDS011;5331;48.148;16.326;2022-11-15T05:51:11;103.07;;;28.63;;
10565;SDS011;5331;48.148;16.326;2022-11-15T05:53:40;109.70;;;29.17;;
10565;SDS011;5331;48.148;16.326;2022-11-15T05:56:08;100.17;;;27.83;;
10565;SDS011;5331;48.148;16.326;2022-11-15T05:58:36;145.60;;;31.77;;
10565;SDS011;5331;48.148;16.326;2022-11-15T06:01:05;69.50;;;25.43;;
10565;SDS011;5331;48.148;16.326;2022-11-15T06:03:32;87.90;;;28.07;;
10565;SDS011;5331;48.148;16.326;2022-11-15T06:05:59;82.70;;;28.47;;
10565;SDS011;5331;48.148;16.326;2022-11-15T06:08:26;95.50;;;28.03;;
10565;SDS011;5331;48.148;16.326;2022-11-15T06:10:53;115.13;;;29.30;;
10565;SDS011;5331;48.148;16.326;2022-11-15T06:13:20;92.97;;;28.20;;
10565;SDS011;5331;48.148;16.326;2022-11-15T06:15:47;103.00;;;29.27;;
10565;SDS011;5331;48.148;16.326;2022-11-15T06:18:15;88.07;;;29.57;;
10565;SDS011;5331;48.148;16.326;2022-11-15T06:20:42;107.93;;;33.97;;
10565;SDS011;5331;48.148;16.326;2022-11-15T06:23:09;90.30;;;31.10;;
10565;SDS011;5331;48.148;16.326;2022-11-15T06:25:36;93.23;;;30.00;;
10565;SDS011;5331;48.148;16.326;2022-11-15T06:28:03;91.17;;;29.57;;
10565;SDS011;5331;48.148;16.326;2022-11-15T06:30:30;113.27;;;31.53;;
10565;SDS011;5331;48.148;16.326;2022-11-15T06:33:00;82.33;;;27.80;;
10565;SDS011;5331;48.148;16.326;2022-11-15T06:35:30;87.20;;;27.97;;
10565;SDS011;5331;48.148;16.326;2022-11-15T06:38:01;99.90;;;30.50;;
10565;SDS011;5331;48.148;16.326;2022-11-15T06:40:29;104.37;;;29.00;;
10565;SDS011;5331;48.148;16.326;2022-11-15T06:42:57;104.10;;;29.33;;
10565;SDS011;5331;48.148;16.326;2022-11-15T06:45:24;88.20;;;27.97;;
10565;SDS011;5331;48.148;16.326;2022-11-15T06:47:51;110.37;;;28.90;;
10565;SDS011;5331;48.148;16.326;2022-11-15T06:50:19;86.63;;;27.10;;
10565;SDS011;5331;48.148;16.326;2022-11-15T06:52:47;103.50;;;28.87;;
10565;SDS011;5331;48.148;16.326;2022-11-15T06:55:14;90.87;;;27.70;;
10565;SDS011;5331;48.148;16.326;2022-11-15T06:57:46;135.13;;;32.10;;
10565;SDS011;5331;48.148;16.326;2022-11-15T07:00:14;94.10;;;32.47;;
10565;SDS011;5331;48.148;16.326;2022-11-15T07:02:42;96.60;;;29.33;;
10565;SDS011;5331;48.148;16.326;2022-11-15T07:05:09;85.43;;;27.90;;
10565;SDS011;5331;48.148;16.326;2022-11-15T07:07:37;99.03;;;31.43;;
10565;SDS011;5331;48.148;16.326;2022-11-15T07:10:06;92.37;;;33.53;;
10565;SDS011;5331;48.148;16.326;2022-11-15T07:12:34;100.80;;;29.50;;
10565;SDS011;5331;48.148;16.326;2022-11-15T07:15:01;84.53;;;28.37;;
10565;SDS011;5331;48.148;16.326;2022-11-15T07:17:28;103.00;;;30.73;;
10565;SDS011;5331;48.148;16.326;2022-11-15T07:19:55;108.77;;;32.40;;
10565;SDS011;5331;48.148;16.326;2022-11-15T07:22:22;107.43;;;31.90;;
10565;SDS011;5331;48.148;16.326;2022-11-15T07:24:49;98.90;;;29.53;;
10565;SDS011;5331;48.148;16.326;2022-11-15T07:27:17;110.70;;;30.07;;
10565;SDS011;5331;48.148;16.326;2022-11-15T07:29:44;120.13;;;37.30;;
10565;SDS011;5331;48.148;16.326;2022-11-15T07:32:11;93.70;;;29.77;;
10565;SDS011;5331;48.148;16.326;2022-11-15T07:34:38;106.40;;;31.70;;
10565;SDS011;5331;48.148;16.326;2022-11-15T07:37:05;91.47;;;31.40;;
10565;SDS011;5331;48.148;16.326;2022-11-15T07:39:32;98.93;;;29.90;;
10565;SDS011;5331;48.148;16.326;2022-11-15T07:41:59;82.40;;;29.80;;
10565;SDS011;5331;48.148;16.326;2022-11-15T07:44:45;98.53;;;29.20;;
10565;SDS011;5331;48.148;16.326;2022-11-15T07:47:12;103.70;;;31.50;;
10565;SDS011;5331;48.148;16.326;2022-11-15T07:49:39;118.50;;;31.63;;
10565;SDS011;5331;48.148;16.326;2022-11-15T07:52:06;107.33;;;31.67;;
10565;SDS011;5331;48.148;16.326;2022-11-15T07:54:33;97.67;;;32.07;;
10565;SDS011;5331;48.148;16.326;2022-11-15T07:57:00;95.50;;;30.13;;
10565;SDS011;5331;48.148;16.326;2022-11-15T07:59:27;95.03;;;29.77;;
10565;SDS011;5331;48.148;16.326;2022-11-15T08:01:55;85.70;;;28.77;;
10565;SDS011;5331;48.148;16.326;2022-11-15T08:04:22;88.70;;;29.10;;
10565;SDS011;5331;48.148;16.326;2022-11-15T08:06:49;90.77;;;29.27;;
10565;SDS011;5331;48.148;16.326;2022-11-15T08:09:16;94.07;;;28.80;;
10565;SDS011;5331;48.148;16.326;2022-11-15T08:11:43;90.27;;;29.13;;
10565;SDS011;5331;48.148;16.326;2022-11-15T08:14:10;86.00;;;28.40;;
10565;SDS011;5331;48.148;16.326;2022-11-15T08:16:37;92.73;;;32.63;;
10565;SDS011;5331;48.148;16.326;2022-11-15T08:19:05;77.47;;;27.87;;
10565;SDS011;5331;48.148;16.326;2022-11-15T08:21:32;74.53;;;26.93;;
10565;SDS011;5331;48.148;16.326;2022-11-15T08:24:00;86.20;;;27.77;;
10565;SDS011;5331;48.148;16.326;2022-11-15T08:26:27;98.20;;;29.87;;
10565;SDS011;5331;48.148;16.326;2022-11-15T08:28:55;80.27;;;26.43;;
10565;SDS011;5331;48.148;16.326;2022-11-15T08:31:22;79.27;;;25.03;;
10565;SDS011;5331;48.148;16.326;2022-11-15T08:33:48;73.80;;;26.80;;
10565;SDS011;5331;48.148;16.326;2022-11-15T08:36:17;68.33;;;25.70;;
10565;SDS011;5331;48.148;16.326;2022-11-15T08:38:44;77.00;;;25.33;;
10565;SDS011;5331;48.148;16.326;2022-11-15T08:41:13;69.90;;;26.20;;
10565;SDS011;5331;48.148;16.326;2022-11-15T08:43:45;80.97;;;26.43;;
10565;SDS011;5331;48.148;16.326;2022-11-15T08:46:13;76.83;;;27.70;;
10565;SDS011;5331;48.148;16.326;2022-11-15T08:48:40;75.80;;;27.03;;
10565;SDS011;5331;48.148;16.326;2022-11-15T08:51:07;89.00;;;29.30;;
10565;SDS011;5331;48.148;16.326;2022-11-15T08:53:35;83.27;;;27.70;;
10565;SDS011;5331;48.148;16.326;2022-11-15T08:56:02;85.83;;;28.30;;
10565;SDS011;5331;48.148;16.326;2022-11-15T08:58:32;102.03;;;29.43;;
10565;SDS011;5331;48.148;16.326;2022-11-15T09:00:59;95.43;;;29.23;;
10565;SDS011;5331;48.148;16.326;2022-11-15T09:03:26;91.30;;;27.83;;
10565;SDS011;5331;48.148;16.326;2022-11-15T09:05:54;89.10;;;28.17;;
10565;SDS011;5331;48.148;16.326;2022-11-15T09:08:22;83.17;;;27.57;;
10565;SDS011;5331;48.148;16.326;2022-11-15T09:10:50;86.80;;;28.50;;
10565;SDS011;5331;48.148;16.326;2022-11-15T09:13:17;93.70;;;28.17;;
10565;SDS011;5331;48.148;16.326;2022-11-15T09:15:44;90.20;;;28.47;;
10565;SDS011;5331;48.148;16.326;2022-11-15T09:18:11;83.80;;;27.47;;
10565;SDS011;5331;48.148;16.326;2022-11-15T09:20:38;86.07;;;26.70;;
10565;SDS011;5331;48.148;16.326;2022-11-15T09:23:05;81.63;;;25.93;;
10565;SDS011;5331;48.148;16.326;2022-11-15T09:25:32;89.83;;;30.03;;
10565;SDS011;5331;48.148;16.326;2022-11-15T09:28:03;94.20;;;28.47;;
10565;SDS011;5331;48.148;16.326;2022-11-15T09:30:32;90.73;;;27.90;;
10565;SDS011;5331;48.148;16.326;2022-11-15T09:33:05;86.87;;;28.40;;
10565;SDS011;5331;48.148;16.326;2022-11-15T09:35:33;95.40;;;29.57;;
10565;SDS011;5331;48.148;16.326;2022-11-15T09:38:00;82.63;;;27.83;;
10565;SDS011;5331;48.148;16.326;2022-11-15T09:40:29;93.53;;;30.00;;
10565;SDS011;5331;48.148;16.326;2022-11-15T09:43:05;88.33;;;28.23;;
10565;SDS011;5331;48.148;16.326;2022-11-15T09:45:47;90.73;;;29.70;;
10565;SDS011;5331;48.148;16.326;2022-11-15T09:48:35;94.50;;;30.43;;
10565;SDS011;5331;48.148;16.326;2022-11-15T09:51:13;88.80;;;29.60;;
10565;SDS011;5331;48.148;16.326;2022-11-15T09:53:47;94.77;;;31.30;;
10565;SDS011;5331;48.148;16.326;2022-11-15T09:56:20;92.03;;;29.83;;
10565;SDS011;5331;48.148;16.326;2022-11-15T09:58:51;99.63;;;29.63;;
10565;SDS011;5331;48.148;16.326;2022-11-15T10:01:27;91.60;;;30.93;;
10565;SDS011;5331;48.148;16.326;2022-11-15T10:04:04;93.53;;;31.87;;
10565;SDS011;5331;48.148;16.326;2022-11-15T10:06:31;119.37;;;31.83;;
10565;SDS011;5331;48.148;16.326;2022-11-15T10:09:05;105.57;;;32.10;;
10565;SDS011;5331;48.148;16.326;2022-11-15T10:11:37;107.67;;;33.57;;
10565;SDS011;5331;48.148;16.326;2022-11-15T10:14:10;121.03;;;31.37;;
10565;SDS011;5331;48.148;16.326;2022-11-15T10:16:50;94.83;;;31.13;;
10565;SDS011;5331;48.148;16.326;2022-11-15T10:19:38;94.67;;;28.43;;
10565;SDS011;5331;48.148;16.326;2022-11-15T10:25:22;111.83;;;33.07;;
10565;SDS011;5331;48.148;16.326;2022-11-15T10:27:52;93.30;;;30.93;;
10565;SDS011;5331;48.148;16.326;2022-11-15T10:30:23;69.33;;;26.70;;
10565;SDS011;5331;48.148;16.326;2022-11-15T10:32:55;66.03;;;25.07;;
10565;SDS011;5331;48.148;16.326;2022-11-15T10:35:24;64.37;;;25.17;;
10565;SDS011;5331;48.148;16.326;2022-11-15T10:38:01;65.47;;;24.60;;
10565;SDS011;5331;48.148;16.326;2022-11-15T10:40:32;65.20;;;25.30;;
10565;SDS011;5331;48.148;16.326;2022-11-15T10:43:16;63.33;;;25.70;;
10565;SDS011;5331;48.148;16.326;2022-11-15T10:45:46;58.70;;;23.63;;
10565;SDS011;5331;48.148;16.326;2022-11-15T10:48:19;61.03;;;22.33;;
10565;SDS011;5331;48.148;16.326;2022-11-15T10:50:51;58.13;;;22.40;;
10565;SDS011;5331;48.148;16.326;2022-11-15T10:53:21;60.43;;;23.83;;
10565;SDS011;5331;48.148;16.326;2022-11-15T10:55:52;69.03;;;25.70;;
10565;SDS011;5331;48.148;16.326;2022-11-15T10:58:26;68.30;;;26.40;;
10565;SDS011;5331;48.148;16.326;2022-11-15T11:01:15;86.33;;;35.63;;
10565;SDS011;5331;48.148;16.326;2022-11-15T11:03:44;71.67;;;29.13;;
10565;SDS011;5331;48.148;16.326;2022-11-15T11:06:23;64.73;;;26.10;;
10565;SDS011;5331;48.148;16.326;2022-11-15T11:08:54;66.50;;;26.10;;
10565;SDS011;5331;48.148;16.326;2022-11-15T11:11:22;65.27;;;23.47;;
10565;SDS011;5331;48.148;16.326;2022-11-15T11:13:50;63.90;;;23.73;;
10565;SDS011;5331;48.148;16.326;2022-11-15T11:16:26;60.20;;;24.60;;
10565;SDS011;5331;48.148;16.326;2022-11-15T11:19:14;61.40;;;25.97;;
10565;SDS011;5331;48.148;16.326;2022-11-15T11:21:46;89.93;;;30.57;;
10565;SDS011;5331;48.148;16.326;2022-11-15T11:24:23;76.30;;;29.20;;
10565;SDS011;5331;48.148;16.326;2022-11-15T11:27:02;84.00;;;30.70;;
10565;SDS011;5331;48.148;16.326;2022-11-15T11:29:56;78.23;;;28.00;;
10565;SDS011;5331;48.148;16.326;2022-11-15T11:32:38;75.97;;;27.73;;
10565;SDS011;5331;48.148;16.326;2022-11-15T11:35:19;71.40;;;26.85;;
10565;SDS011;5331;48.148;16.326;2022-11-15T11:37:50;66.60;;;28.02;;
10565;SDS011;5331;48.148;16.326;2022-11-15T11:40:22;83.97;;;29.65;;
10565;SDS011;5331;48.148;16.326;2022-11-15T11:42:55;74.57;;;26.87;;
10565;SDS011;5331;48.148;16.326;2022-11-15T11:45:43;90.82;;;31.48;;
10565;SDS011;5331;48.148;16.326;2022-11-15T11:48:23;79.27;;;30.33;;
10565;SDS011;5331;48.148;16.326;2022-11-15T11:51:01;80.30;;;30.98;;
10565;SDS011;5331;48.148;16.326;2022-11-15T11:53:37;96.53;;;32.85;;
10565;SDS011;5331;48.148;16.326;2022-11-15T11:56:10;87.80;;;31.25;;
10565;SDS011;5331;48.148;16.326;2022-11-15T11:58:44;78.43;;;29.40;;
10565;SDS011;5331;48.148;16.326;2022-11-15T12:01:14;82.18;;;29.38;;
10565;SDS011;5331;48.148;16.326;2022-11-15T12:03:49;70.57;;;26.67;;
10565;SDS011;5331;48.148;16.326;2022-11-15T12:06:24;67.43;;;25.88;;
10565;SDS011;5331;48.148;16.326;2022-11-15T12:08:59;56.72;;;23.17;;
10565;SDS011;5331;48.148;16.326;2022-11-15T12:11:32;59.43;;;23.77;;
10565;SDS011;5331;48.148;16.326;2022-11-15T12:14:18;58.07;;;23.60;;
10565;SDS011;5331;48.148;16.326;2022-11-15T12:16:52;54.07;;;22.93;;
10565;SDS011;5331;48.148;16.326;2022-11-15T12:19:21;59.20;;;24.45;;
10565;SDS011;5331;48.148;16.326;2022-11-15T12:21:49;58.17;;;23.25;;
10565;SDS011;5331;48.148;16.326;2022-11-15T12:24:23;52.78;;;23.50;;
10565;SDS011;5331;48.148;16.326;2022-11-15T12:26:56;60.08;;;24.45;;
10565;SDS011;5331;48.148;16.326;2022-11-15T12:29:30;54.20;;;24.20;;
10565;SDS011;5331;48.148;16.326;2022-11-15T12:32:01;64.45;;;25.48;;
10565;SDS011;5331;48.148;16.326;2022-11-15T12:34:36;60.88;;;26.27;;
10565;SDS011;5331;48.148;16.326;2022-11-15T12:40:04;68.80;;;26.38;;
10565;SDS011;5331;48.148;16.326;2022-11-15T12:42:56;58.22;;;26.25;;
10565;SDS011;5331;48.148;16.326;2022-11-15T12:45:26;71.53;;;28.63;;
10565;SDS011;5331;48.148;16.326;2022-11-15T12:47:56;70.93;;;27.60;;
10565;SDS011;5331;48.148;16.326;2022-11-15T12:50:59;74.40;;;28.70;;
10565;SDS011;5331;48.148;16.326;2022-11-15T12:53:27;69.65;;;28.55;;
10565;SDS011;5331;48.148;16.326;2022-11-15T12:56:08;72.47;;;29.48;;
10565;SDS011;5331;48.148;16.326;2022-11-15T12:58:52;69.30;;;28.77;;
10565;SDS011;5331;48.148;16.326;2022-11-15T13:04:22;72.70;;;30.25;;
10565;SDS011;5331;48.148;16.326;2022-11-15T13:06:54;73.70;;;30.88;;
10565;SDS011;5331;48.148;16.326;2022-11-15T13:15:37;68.10;;;30.00;;
10565;SDS011;5331;48.148;16.326;2022-11-15T13:21:20;66.57;;;29.37;;
10565;SDS011;5331;48.148;16.326;2022-11-15T13:24:12;59.55;;;28.17;;
10565;SDS011;5331;48.148;16.326;2022-11-15T13:26:42;66.25;;;29.58;;
10565;SDS011;5331;48.148;16.326;2022-11-15T13:29:16;63.83;;;27.63;;
10565;SDS011;5331;48.148;16.326;2022-11-15T13:31:44;62.00;;;27.80;;
10565;SDS011;5331;48.148;16.326;2022-11-15T13:34:16;58.90;;;28.60;;
10565;SDS011;5331;48.148;16.326;2022-11-15T13:36:50;66.57;;;28.42;;
10565;SDS011;5331;48.148;16.326;2022-11-15T13:39:25;62.47;;;28.60;;
10565;SDS011;5331;48.148;16.326;2022-11-15T13:41:56;56.85;;;25.92;;
10565;SDS011;5331;48.148;16.326;2022-11-15T13:44:24;63.50;;;28.08;;
10565;SDS011;5331;48.148;16.326;2022-11-15T13:47:02;62.80;;;28.80;;
10565;SDS011;5331;48.148;16.326;2022-11-15T13:49:30;61.42;;;27.80;;
10565;SDS011;5331;48.148;16.326;2022-11-15T13:51:58;62.40;;;28.92;;
10565;SDS011;5331;48.148;16.326;2022-11-15T13:54:29;64.15;;;28.48;;
10565;SDS011;5331;48.148;16.326;2022-11-15T13:57:01;61.45;;;27.70;;
10565;SDS011;5331;48.148;16.326;2022-11-15T13:59:30;61.10;;;28.38;;
10565;SDS011;5331;48.148;16.326;2022-11-15T14:02:01;66.18;;;27.95;;
10565;SDS011;5331;48.148;16.326;2022-11-15T14:04:37;63.13;;;28.45;;
10565;SDS011;5331;48.148;16.326;2022-11-15T14:07:14;60.08;;;28.45;;
10565;SDS011;5331;48.148;16.326;2022-11-15T14:09:44;60.95;;;27.33;;
10565;SDS011;5331;48.148;16.326;2022-11-15T14:12:23;64.55;;;28.90;;
10565;SDS011;5331;48.148;16.326;2022-11-15T14:14:55;61.07;;;28.70;;
10565;SDS011;5331;48.148;16.326;2022-11-15T14:17:33;60.72;;;28.77;;
10565;SDS011;5331;48.148;16.326;2022-11-15T14:20:02;57.55;;;27.30;;
10565;SDS011;5331;48.148;16.326;2022-11-15T14:22:52;60.25;;;28.10;;
10565;SDS011;5331;48.148;16.326;2022-11-15T14:25:22;62.60;;;28.20;;
10565;SDS011;5331;48.148;16.326;2022-11-15T14:30:54;54.90;;;27.17;;
10565;SDS011;5331;48.148;16.326;2022-11-15T14:33:23;52.75;;;27.17;;
10565;SDS011;5331;48.148;16.326;2022-11-15T14:35:55;57.47;;;27.53;;
10565;SDS011;5331;48.148;16.326;2022-11-15T14:38:22;54.73;;;26.70;;
10565;SDS011;5331;48.148;16.326;2022-11-15T14:40:51;57.97;;;27.40;;
10565;SDS011;5331;48.148;16.326;2022-11-15T14:43:19;55.75;;;26.77;;
10565;SDS011;5331;48.148;16.326;2022-11-15T14:45:46;52.67;;;26.88;;
10565;SDS011;5331;48.148;16.326;2022-11-15T14:48:13;50.83;;;26.90;;
10565;SDS011;5331;48.148;16.326;2022-11-15T14:50:40;54.88;;;27.63;;
10565;SDS011;5331;48.148;16.326;2022-11-15T14:53:10;57.20;;;27.15;;
10565;SDS011;5331;48.148;16.326;2022-11-15T14:55:39;52.78;;;26.75;;
10565;SDS011;5331;48.148;16.326;2022-11-15T14:58:07;49.35;;;26.38;;
10565;SDS011;5331;48.148;16.326;2022-11-15T15:00:35;55.38;;;28.52;;
10565;SDS011;5331;48.148;16.326;2022-11-15T15:03:03;57.38;;;29.48;;
10565;SDS011;5331;48.148;16.326;2022-11-15T15:05:32;61.00;;;29.42;;
10565;SDS011;5331;48.148;16.326;2022-11-15T15:08:00;58.05;;;29.98;;